CheckWX is a tool to help pilots better visualize weather data.  It is not intended as a substitute for an official pre-flight weather briefing.

05:16:25 UTC

EPWR METAR
Copernicus Wrocław Airport
Wrocław, Poland
Current

16 mins ago

EPWR 240500Z 11002KT CAVOK M03/M05 Q1040
Observed
Feb-24 @ 05:00 UTC
Wind
  • 110° at 2 KTS
Visibility
10,000+ meters
Flight Rules
VFR
Cloud Levels
  • Clear skies
Temperature
-3°C / 27°F
Dewpoint
-5°C / 23°F
Humidity
86%
Altimeter
30.71" Hg
Pressure
1039.91 hPa
Previous

46 mins ago

EPWR 240430Z VRB02KT CAVOK M03/M05 Q1039
Observed
Feb-24 @ 04:30 UTC
Wind
  • Variable at 2 KTS
Visibility
10,000+ meters
Flight Rules
VFR
Cloud Levels
  • Clear skies
Temperature
-3°C / 27°F
Dewpoint
-5°C / 23°F
Humidity
86%
Altimeter
30.68" Hg
Pressure
1038.91 hPa
Previous

1 hour ago

EPWR 240400Z VRB02KT CAVOK M04/M06 Q1039
Observed
Feb-24 @ 04:00 UTC
Wind
  • Variable at 2 KTS
Visibility
10,000+ meters
Flight Rules
VFR
Cloud Levels
  • Clear skies
Temperature
-4°C / 25°F
Dewpoint
-6°C / 21°F
Humidity
86%
Altimeter
30.68" Hg
Pressure
1038.91 hPa